PWSweather.com
Personal Weather Stations
Station Observations
ISARDEGN48
BittiIT 08021

BittiIT 08021

Lat: 40.4805, Lon: 9.3887

Elevation: 1804

Station Type: La Crosse WS2355

http://meteobitti.altervista.org

High Low Average
Temperature 55.2°F12.9°C 47.8°F8.8°C 50.4°F10.2°C
Dew Point 43.8°F6.6°C 39.4°F4.1°C 41.8°F5.4°C
Winds 21.0 mph 33.8 kmh Calm Calm 5.0 mph ESE8.0 kmh ESE
Wind Gusts 27.1 mph43.6 kmh 0.9 mph1.4 kmh 13.0 mph20.9 kmh
Humidity 83% 63% 73%
Pressure 29.57 in1001.4 mb 29.28 in991.5 mb -
Precipitation 0.00 in0.0 mm - -
Hour Temp Dew Point Humidity Winds Wind Gusts Pressure Precip Precip Rate Daily Precip Total
12:00 AM 49.1°F9.5°C 43.8°F6.6°C 82% 5.8 mph E9.3 kmh E 7.6 mph12.2 kmh 29.29 in991.9 mb 0.00 in0.0 mm 0.00 in0.0 mm 0.00 in0.0 mm
12:05 AM 48.9°F9.4°C 43.3°F6.3°C 81% 10.1 mph E16.3 kmh E 19.2 mph30.9 kmh 29.28 in991.5 mb 0.00 in0.0 mm 0.00 in0.0 mm 0.00 in0.0 mm
12:10 AM 49.1°F9.5°C 43.5°F6.4°C 81% 4.0 mph E6.4 kmh E 19.2 mph30.9 kmh 29.28 in991.5 mb 0.00 in0.0 mm 0.00 in0.0 mm 0.00 in0.0 mm
12:15 AM 49.1°F9.5°C 43.5°F6.4°C 81% 8.1 mph ENE13.0 kmh ENE 19.2 mph30.9 kmh 29.28 in991.5 mb 0.00 in0.0 mm 0.00 in0.0 mm 0.00 in0.0 mm
12:20 AM 49.1°F9.5°C 43.5°F6.4°C 81% 6.0 mph NE9.7 kmh NE 19.2 mph30.9 kmh 29.28 in991.5 mb 0.00 in0.0 mm 0.00 in0.0 mm 0.00 in0.0 mm
12:25 AM 49.1°F9.5°C 43.5°F6.4°C 81% 6.3 mph NE10.1 kmh NE 18.6 mph29.9 kmh 29.28 in991.5 mb 0.00 in0.0 mm 0.00 in0.0 mm 0.00 in0.0 mm
12:30 AM 49.1°F9.5°C 43.2°F6.2°C 80% 8.1 mph ENE13.0 kmh ENE 19.9 mph32.0 kmh 29.28 in991.5 mb 0.00 in0.0 mm 0.00 in0.0 mm 0.00 in0.0 mm
12:35 AM 49.1°F9.5°C 43.2°F6.2°C 80% 11.4 mph ENE18.3 kmh ENE 19.9 mph32.0 kmh 29.28 in991.5 mb 0.00 in0.0 mm 0.00 in0.0 mm 0.00 in0.0 mm
12:40 AM 49.1°F9.5°C 43.2°F6.2°C 80% 11.9 mph ENE19.2 kmh ENE 18.8 mph30.3 kmh 29.28 in991.5 mb 0.00 in0.0 mm 0.00 in0.0 mm 0.00 in0.0 mm
12:45 AM 49.3°F9.6°C 43.3°F6.3°C 80% 3.8 mph ENE6.1 kmh ENE 18.8 mph30.3 kmh 29.28 in991.5 mb 0.00 in0.0 mm 0.00 in0.0 mm 0.00 in0.0 mm
12:50 AM 49.1°F9.5°C 43.2°F6.2°C 80% Calm Calm 14.1 mph22.7 kmh 29.28 in991.5 mb 0.00 in0.0 mm 0.00 in0.0 mm 0.00 in0.0 mm
12:55 AM 49.1°F9.5°C 43.2°F6.2°C 80% Calm Calm 13.2 mph21.2 kmh 29.28 in991.5 mb 0.00 in0.0 mm 0.00 in0.0 mm 0.00 in0.0 mm
01:00 AM 48.9°F9.4°C 43.0°F6.1°C 80% 6.7 mph SE10.8 kmh SE 9.8 mph15.8 kmh 29.28 in991.5 mb 0.00 in0.0 mm 0.00 in0.0 mm 0.00 in0.0 mm
01:05 AM 48.9°F9.4°C 43.0°F6.1°C 80% 5.8 mph SE9.3 kmh SE 12.5 mph20.1 kmh 29.28 in991.5 mb 0.00 in0.0 mm 0.00 in0.0 mm 0.00 in0.0 mm
01:10 AM 48.9°F9.4°C 43.0°F6.1°C 80% 7.6 mph SE12.2 kmh SE 12.5 mph20.1 kmh 29.28 in991.5 mb 0.00 in0.0 mm 0.00 in0.0 mm 0.00 in0.0 mm
01:15 AM 48.9°F9.4°C 43.0°F6.1°C 80% 5.1 mph ESE8.2 kmh ESE 11.4 mph18.3 kmh 29.28 in991.5 mb 0.00 in0.0 mm 0.00 in0.0 mm 0.00 in0.0 mm
01:20 AM 48.7°F9.3°C 43.1°F6.2°C 81% 2.5 mph E4.0 kmh E 16.1 mph25.9 kmh 29.29 in991.9 mb 0.00 in0.0 mm 0.00 in0.0 mm 0.00 in0.0 mm
01:25 AM 48.7°F9.3°C 42.8°F6.0°C 80% 4.7 mph NE7.6 kmh NE 20.6 mph33.2 kmh 29.29 in991.9 mb 0.00 in0.0 mm 0.00 in0.0 mm 0.00 in0.0 mm
01:30 AM 48.9°F9.4°C 43.0°F6.1°C 80% 8.9 mph NE14.3 kmh NE 20.6 mph33.2 kmh 29.29 in991.9 mb 0.00 in0.0 mm 0.00 in0.0 mm 0.00 in0.0 mm
01:35 AM 48.9°F9.4°C 43.0°F6.1°C 80% 6.5 mph ENE10.5 kmh ENE 19.5 mph31.4 kmh 29.29 in991.9 mb 0.00 in0.0 mm 0.00 in0.0 mm 0.00 in0.0 mm
01:40 AM 48.9°F9.4°C 42.6°F5.9°C 79% 8.3 mph E13.4 kmh E 18.8 mph30.3 kmh 29.30 in992.2 mb 0.00 in0.0 mm 0.00 in0.0 mm 0.00 in0.0 mm
01:45 AM 48.9°F9.4°C 42.6°F5.9°C 79% 2.7 mph E4.3 kmh E 16.3 mph26.2 kmh 29.30 in992.2 mb 0.00 in0.0 mm 0.00 in0.0 mm 0.00 in0.0 mm
01:50 AM 48.9°F9.4°C 42.6°F5.9°C 79% 2.7 mph E4.3 kmh E 16.3 mph26.2 kmh 29.30 in992.2 mb 0.00 in0.0 mm 0.00 in0.0 mm 0.00 in0.0 mm
01:55 AM 48.9°F9.4°C 42.6°F5.9°C 79% 2.2 mph E3.5 kmh E 17.9 mph28.8 kmh 29.30 in992.2 mb 0.00 in0.0 mm 0.00 in0.0 mm 0.00 in0.0 mm
02:00 AM 48.9°F9.4°C 42.3°F5.7°C 78% 3.1 mph E5.0 kmh E 20.4 mph32.8 kmh 29.31 in992.6 mb 0.00 in0.0 mm 0.00 in0.0 mm 0.00 in0.0 mm
02:05 AM 48.9°F9.4°C 42.3°F5.7°C 78% 4.7 mph SE7.6 kmh SE 12.5 mph20.1 kmh 29.32 in992.9 mb 0.00 in0.0 mm 0.00 in0.0 mm 0.00 in0.0 mm
02:10 AM 48.7°F9.3°C 42.1°F5.6°C 78% 2.7 mph SE4.3 kmh SE 13.2 mph21.2 kmh 29.32 in992.9 mb 0.00 in0.0 mm 0.00 in0.0 mm 0.00 in0.0 mm
02:15 AM 48.7°F9.3°C 42.1°F5.6°C 78% 5.1 mph SE8.2 kmh SE 13.2 mph21.2 kmh 29.32 in992.9 mb 0.00 in0.0 mm 0.00 in0.0 mm 0.00 in0.0 mm
02:20 AM 48.7°F9.3°C 41.8°F5.4°C 77% 4.0 mph SSE6.4 kmh SSE 17.4 mph28.0 kmh 29.32 in992.9 mb 0.00 in0.0 mm 0.00 in0.0 mm 0.00 in0.0 mm
02:25 AM 48.6°F9.2°C 41.6°F5.3°C 77% 10.7 mph SSE17.2 kmh SSE 17.4 mph28.0 kmh 29.32 in992.9 mb 0.00 in0.0 mm 0.00 in0.0 mm 0.00 in0.0 mm
02:30 AM 48.6°F9.2°C 41.6°F5.3°C 77% 2.5 mph SSE4.0 kmh SSE 10.7 mph17.2 kmh 29.32 in992.9 mb 0.00 in0.0 mm 0.00 in0.0 mm 0.00 in0.0 mm
02:35 AM 48.4°F9.1°C 41.4°F5.2°C 77% 4.0 mph SE6.4 kmh SE 13.0 mph20.9 kmh 29.33 in993.2 mb 0.00 in0.0 mm 0.00 in0.0 mm 0.00 in0.0 mm
02:40 AM 48.4°F9.1°C 41.4°F5.2°C 77% 3.6 mph ESE5.8 kmh ESE 13.6 mph21.9 kmh 29.33 in993.2 mb 0.00 in0.0 mm 0.00 in0.0 mm 0.00 in0.0 mm
02:45 AM 48.2°F9.0°C 41.2°F5.1°C 77% 9.2 mph SE14.8 kmh SE 14.1 mph22.7 kmh 29.32 in992.9 mb 0.00 in0.0 mm 0.00 in0.0 mm 0.00 in0.0 mm
02:50 AM 48.2°F9.0°C 41.2°F5.1°C 77% 11.6 mph ESE18.7 kmh ESE 14.1 mph22.7 kmh 29.32 in992.9 mb 0.00 in0.0 mm 0.00 in0.0 mm 0.00 in0.0 mm
02:55 AM 48.0°F8.9°C 41.1°F5.1°C 77% 5.8 mph E9.3 kmh E 17.4 mph28.0 kmh 29.31 in992.6 mb 0.00 in0.0 mm 0.00 in0.0 mm 0.00 in0.0 mm
03:00 AM 48.0°F8.9°C 40.7°F4.8°C 76% 7.4 mph E11.9 kmh E 17.4 mph28.0 kmh 29.31 in992.6 mb 0.00 in0.0 mm 0.00 in0.0 mm 0.00 in0.0 mm
03:05 AM 48.2°F9.0°C 40.9°F4.9°C 77% 9.4 mph E15.1 kmh E 19.5 mph31.4 kmh 29.31 in992.6 mb 0.00 in0.0 mm 0.00 in0.0 mm 0.00 in0.0 mm
03:10 AM 48.0°F8.9°C 40.7°F4.8°C 76% 8.3 mph E13.4 kmh E 19.5 mph31.4 kmh 29.31 in992.6 mb 0.00 in0.0 mm 0.00 in0.0 mm 0.00 in0.0 mm
03:15 AM 48.0°F8.9°C 40.7°F4.8°C 76% 2.5 mph E4.0 kmh E 20.4 mph32.8 kmh 29.31 in992.6 mb 0.00 in0.0 mm 0.00 in0.0 mm 0.00 in0.0 mm
03:20 AM 48.0°F8.9°C 40.7°F4.8°C 76% 15.4 mph NE24.8 kmh NE 20.4 mph32.8 kmh 29.31 in992.6 mb 0.00 in0.0 mm 0.00 in0.0 mm 0.00 in0.0 mm
03:25 AM 48.2°F9.0°C 40.9°F4.9°C 76% 6.5 mph ENE10.5 kmh ENE 26.6 mph42.8 kmh 29.32 in992.9 mb 0.00 in0.0 mm 0.00 in0.0 mm 0.00 in0.0 mm
03:30 AM 48.2°F9.0°C 40.9°F4.9°C 76% 4.5 mph NE7.2 kmh NE 26.6 mph42.8 kmh 29.33 in993.2 mb 0.00 in0.0 mm 0.00 in0.0 mm 0.00 in0.0 mm
03:35 AM 48.2°F9.0°C 40.5°F4.7°C 75% 7.8 mph ENE12.6 kmh ENE 19.5 mph31.4 kmh 29.34 in993.6 mb 0.00 in0.0 mm 0.00 in0.0 mm 0.00 in0.0 mm
03:40 AM 48.2°F9.0°C 40.5°F4.7°C 75% 12.1 mph NE19.5 kmh NE 23.0 mph37.0 kmh 29.34 in993.6 mb 0.00 in0.0 mm 0.00 in0.0 mm 0.00 in0.0 mm
03:45 AM 48.2°F9.0°C 40.5°F4.7°C 75% 11.4 mph NE18.3 kmh NE 23.0 mph37.0 kmh 29.35 in993.9 mb 0.00 in0.0 mm 0.00 in0.0 mm 0.00 in0.0 mm
03:50 AM 48.2°F9.0°C 40.9°F4.9°C 76% 8.1 mph ENE13.0 kmh ENE 16.8 mph27.0 kmh 29.35 in993.9 mb 0.00 in0.0 mm 0.00 in0.0 mm 0.00 in0.0 mm
03:55 AM 48.2°F9.0°C 40.9°F4.9°C 76% 10.1 mph NE16.3 kmh NE 20.1 mph32.3 kmh 29.34 in993.6 mb 0.00 in0.0 mm 0.00 in0.0 mm 0.00 in0.0 mm
04:00 AM 48.0°F8.9°C 40.4°F4.7°C 75% 4.5 mph NE7.2 kmh NE 20.1 mph32.3 kmh 29.35 in993.9 mb 0.00 in0.0 mm 0.00 in0.0 mm 0.00 in0.0 mm
04:05 AM 48.0°F8.9°C 40.4°F4.7°C 75% 12.3 mph E19.8 kmh E 17.2 mph27.7 kmh 29.36 in994.2 mb 0.00 in0.0 mm 0.00 in0.0 mm 0.00 in0.0 mm
04:10 AM 48.0°F8.9°C 40.4°F4.7°C 75% 8.1 mph SE13.0 kmh SE 17.2 mph27.7 kmh 29.36 in994.2 mb 0.00 in0.0 mm 0.00 in0.0 mm 0.00 in0.0 mm
04:15 AM 48.0°F8.9°C 40.4°F4.7°C 75% 5.6 mph E9.0 kmh E 15.4 mph24.8 kmh 29.37 in994.6 mb 0.00 in0.0 mm 0.00 in0.0 mm 0.00 in0.0 mm
04:20 AM 48.0°F8.9°C 40.4°F4.7°C 75% 9.6 mph ENE15.4 kmh ENE 15.4 mph24.8 kmh 29.37 in994.6 mb 0.00 in0.0 mm 0.00 in0.0 mm 0.00 in0.0 mm
04:25 AM 48.0°F8.9°C 40.4°F4.7°C 75% 1.6 mph E2.6 kmh E 13.6 mph21.9 kmh 29.37 in994.6 mb 0.00 in0.0 mm 0.00 in0.0 mm 0.00 in0.0 mm
04:30 AM 48.0°F8.9°C 40.4°F4.7°C 75% 3.8 mph ESE6.1 kmh ESE 13.6 mph21.9 kmh 29.36 in994.2 mb 0.00 in0.0 mm 0.00 in0.0 mm 0.00 in0.0 mm
04:35 AM 47.8°F8.8°C 40.4°F4.7°C 75% 3.6 mph ESE5.8 kmh ESE 20.4 mph32.8 kmh 29.36 in994.2 mb 0.00 in0.0 mm 0.00 in0.0 mm 0.00 in0.0 mm
04:40 AM 48.0°F8.9°C 40.4°F4.7°C 75% 10.3 mph ESE16.6 kmh ESE 20.4 mph32.8 kmh 29.36 in994.2 mb 0.00 in0.0 mm 0.00 in0.0 mm 0.00 in0.0 mm
04:45 AM 48.0°F8.9°C 40.4°F4.7°C 75% 6.9 mph E11.1 kmh E 21.3 mph34.3 kmh 29.37 in994.6 mb 0.00 in0.0 mm 0.00 in0.0 mm 0.00 in0.0 mm
04:50 AM 48.0°F8.9°C 40.4°F4.7°C 75% 5.4 mph SE8.7 kmh SE 21.3 mph34.3 kmh 29.38 in994.9 mb 0.00 in0.0 mm 0.00 in0.0 mm 0.00 in0.0 mm
04:55 AM 48.0°F8.9°C 40.4°F4.7°C 75% 2.7 mph SE4.3 kmh SE 18.3 mph29.5 kmh 29.38 in994.9 mb 0.00 in0.0 mm 0.00 in0.0 mm 0.00 in0.0 mm
05:00 AM 47.8°F8.8°C 40.2°F4.6°C 75% 10.7 mph SE17.2 kmh SE 18.3 mph29.5 kmh 29.39 in995.3 mb 0.00 in0.0 mm 0.00 in0.0 mm 0.00 in0.0 mm
05:05 AM 48.0°F8.9°C 40.4°F4.7°C 75% 8.1 mph E13.0 kmh E 14.5 mph23.3 kmh 29.39 in995.3 mb 0.00 in0.0 mm 0.00 in0.0 mm 0.00 in0.0 mm
05:10 AM 48.0°F8.9°C 40.4°F4.7°C 75% 4.7 mph SSE7.6 kmh SSE 18.1 mph29.1 kmh 29.39 in995.3 mb 0.00 in0.0 mm 0.00 in0.0 mm 0.00 in0.0 mm
05:15 AM 48.0°F8.9°C 40.0°F4.4°C 74% 21.0 mph S33.8 kmh S 24.2 mph38.9 kmh 29.39 in995.3 mb 0.00 in0.0 mm 0.00 in0.0 mm 0.00 in0.0 mm
05:20 AM 48.4°F9.1°C 40.4°F4.7°C 74% 8.9 mph S14.3 kmh S 24.2 mph38.9 kmh 29.38 in994.9 mb 0.00 in0.0 mm 0.00 in0.0 mm 0.00 in0.0 mm
05:25 AM 48.4°F9.1°C 40.4°F4.7°C 74% 5.1 mph S8.2 kmh S 21.0 mph33.8 kmh 29.38 in994.9 mb 0.00 in0.0 mm 0.00 in0.0 mm 0.00 in0.0 mm
05:30 AM 48.2°F9.0°C 40.5°F4.7°C 75% 4.5 mph SE7.2 kmh SE 10.7 mph17.2 kmh 29.38 in994.9 mb 0.00 in0.0 mm 0.00 in0.0 mm 0.00 in0.0 mm
05:35 AM 48.0°F8.9°C 40.0°F4.4°C 74% 9.8 mph E15.8 kmh E 17.0 mph27.4 kmh 29.38 in994.9 mb 0.00 in0.0 mm 0.00 in0.0 mm 0.00 in0.0 mm
05:40 AM 48.0°F8.9°C 40.4°F4.7°C 75% 6.0 mph NE9.7 kmh NE 17.0 mph27.4 kmh 29.38 in994.9 mb 0.00 in0.0 mm 0.00 in0.0 mm 0.00 in0.0 mm
05:45 AM 48.0°F8.9°C 40.4°F4.7°C 75% 5.1 mph NE8.2 kmh NE 16.8 mph27.0 kmh 29.38 in994.9 mb 0.00 in0.0 mm 0.00 in0.0 mm 0.00 in0.0 mm
05:50 AM 48.0°F8.9°C 40.4°F4.7°C 75% 14.3 mph ENE23.0 kmh ENE 19.5 mph31.4 kmh 29.38 in994.9 mb 0.00 in0.0 mm 0.00 in0.0 mm 0.00 in0.0 mm
05:55 AM 48.0°F8.9°C 40.4°F4.7°C 75% 5.1 mph ENE8.2 kmh ENE 19.5 mph31.4 kmh 29.38 in994.9 mb 0.00 in0.0 mm 0.00 in0.0 mm 0.00 in0.0 mm
06:00 AM 48.0°F8.9°C 40.0°F4.4°C 74% 3.1 mph E5.0 kmh E 16.8 mph27.0 kmh 29.38 in994.9 mb 0.00 in0.0 mm 0.00 in0.0 mm 0.00 in0.0 mm
06:05 AM 48.0°F8.9°C 40.4°F4.7°C 75% 3.6 mph ESE5.8 kmh ESE 7.6 mph12.2 kmh 29.38 in994.9 mb 0.00 in0.0 mm 0.00 in0.0 mm 0.00 in0.0 mm
06:10 AM 48.0°F8.9°C 40.4°F4.7°C 75% Calm Calm 8.1 mph13.0 kmh 29.38 in994.9 mb 0.00 in0.0 mm 0.00 in0.0 mm 0.00 in0.0 mm
06:15 AM 48.2°F9.0°C 40.2°F4.6°C 74% 3.4 mph SSE5.5 kmh SSE 13.4 mph21.6 kmh 29.38 in994.9 mb 0.00 in0.0 mm 0.00 in0.0 mm 0.00 in0.0 mm
06:20 AM 48.4°F9.1°C 40.4°F4.7°C 74% 5.8 mph SE9.3 kmh SE 13.4 mph21.6 kmh 29.38 in994.9 mb 0.00 in0.0 mm 0.00 in0.0 mm 0.00 in0.0 mm
06:25 AM 48.4°F9.1°C 40.4°F4.7°C 74% 1.6 mph ESE2.6 kmh ESE 12.5 mph20.1 kmh 29.38 in994.9 mb 0.00 in0.0 mm 0.00 in0.0 mm 0.00 in0.0 mm
06:30 AM 48.4°F9.1°C 40.4°F4.7°C 74% Calm Calm 12.5 mph20.1 kmh 29.38 in994.9 mb 0.00 in0.0 mm 0.00 in0.0 mm 0.00 in0.0 mm
06:35 AM 48.4°F9.1°C 40.4°F4.7°C 74% 3.8 mph S6.1 kmh S 6.9 mph11.1 kmh 29.38 in994.9 mb 0.00 in0.0 mm 0.00 in0.0 mm 0.00 in0.0 mm
06:40 AM 48.4°F9.1°C 40.0°F4.4°C 73% 3.8 mph SSE6.1 kmh SSE 14.8 mph23.8 kmh 29.38 in994.9 mb 0.00 in0.0 mm 0.00 in0.0 mm 0.00 in0.0 mm
06:45 AM 48.4°F9.1°C 39.7°F4.3°C 72% 4.3 mph SE6.9 kmh SE 15.9 mph25.6 kmh 29.37 in994.6 mb 0.00 in0.0 mm 0.00 in0.0 mm 0.00 in0.0 mm
06:50 AM 48.6°F9.2°C 39.9°F4.4°C 72% 7.2 mph ESE11.6 kmh ESE 15.9 mph25.6 kmh 29.37 in994.6 mb 0.00 in0.0 mm 0.00 in0.0 mm 0.00 in0.0 mm
06:55 AM 48.6°F9.2°C 39.9°F4.4°C 72% 11.4 mph E18.3 kmh E 13.6 mph21.9 kmh 29.37 in994.6 mb 0.00 in0.0 mm 0.00 in0.0 mm 0.00 in0.0 mm
07:00 AM 48.4°F9.1°C 39.7°F4.3°C 72% 4.5 mph ESE7.2 kmh ESE 13.6 mph21.9 kmh 29.37 in994.6 mb 0.00 in0.0 mm 0.00 in0.0 mm 0.00 in0.0 mm
07:05 AM 48.4°F9.1°C 39.4°F4.1°C 71% 5.8 mph E9.3 kmh E 16.3 mph26.2 kmh 29.37 in994.6 mb 0.00 in0.0 mm 0.00 in0.0 mm 0.00 in0.0 mm
07:10 AM 48.6°F9.2°C 39.5°F4.2°C 71% 4.5 mph ENE7.2 kmh ENE 16.3 mph26.2 kmh 29.37 in994.6 mb 0.00 in0.0 mm 0.00 in0.0 mm 0.00 in0.0 mm
07:15 AM 48.6°F9.2°C 39.5°F4.2°C 71% 2.7 mph ESE4.3 kmh ESE 15.0 mph24.1 kmh 29.37 in994.6 mb 0.00 in0.0 mm 0.00 in0.0 mm 0.00 in0.0 mm
07:20 AM 48.6°F9.2°C 39.5°F4.2°C 71% 3.8 mph S6.1 kmh S 14.5 mph23.3 kmh 29.37 in994.6 mb 0.00 in0.0 mm 0.00 in0.0 mm 0.00 in0.0 mm
07:30 AM 48.4°F9.1°C 39.7°F4.3°C 72% 6.5 mph S10.5 kmh S 15.0 mph24.1 kmh 29.37 in994.6 mb 0.00 in0.0 mm 0.00 in0.0 mm 0.00 in0.0 mm
07:35 AM 48.4°F9.1°C 39.7°F4.3°C 72% 7.6 mph S12.2 kmh S 16.3 mph26.2 kmh 29.37 in994.6 mb 0.00 in0.0 mm 0.00 in0.0 mm 0.00 in0.0 mm
07:40 AM 48.4°F9.1°C 39.7°F4.3°C 72% 9.4 mph S15.1 kmh S 17.9 mph28.8 kmh 29.37 in994.6 mb 0.00 in0.0 mm 0.00 in0.0 mm 0.00 in0.0 mm
07:45 AM 48.4°F9.1°C 40.0°F4.4°C 73% 7.6 mph S12.2 kmh S 17.9 mph28.8 kmh 29.37 in994.6 mb 0.00 in0.0 mm 0.00 in0.0 mm 0.00 in0.0 mm
07:50 AM 48.6°F9.2°C 39.9°F4.4°C 72% 3.4 mph SSE5.5 kmh SSE 11.6 mph18.7 kmh 29.37 in994.6 mb 0.00 in0.0 mm 0.00 in0.0 mm 0.00 in0.0 mm
07:55 AM 48.6°F9.2°C 40.2°F4.6°C 73% 4.5 mph SE7.2 kmh SE 11.0 mph17.7 kmh 29.37 in994.6 mb 0.00 in0.0 mm 0.00 in0.0 mm 0.00 in0.0 mm
08:00 AM 48.6°F9.2°C 39.9°F4.4°C 72% 2.5 mph ESE4.0 kmh ESE 15.0 mph24.1 kmh 29.37 in994.6 mb 0.00 in0.0 mm 0.00 in0.0 mm 0.00 in0.0 mm
08:05 AM 48.7°F9.3°C 40.4°F4.7°C 73% 2.5 mph ESE4.0 kmh ESE 15.0 mph24.1 kmh 29.37 in994.6 mb 0.00 in0.0 mm 0.00 in0.0 mm 0.00 in0.0 mm
08:10 AM 48.7°F9.3°C 40.4°F4.7°C 73% 17.4 mph E28.0 kmh E 17.4 mph28.0 kmh 29.37 in994.6 mb 0.00 in0.0 mm 0.00 in0.0 mm 0.00 in0.0 mm
08:15 AM 48.9°F9.4°C 40.6°F4.8°C 73% 2.9 mph E4.7 kmh E 17.4 mph28.0 kmh 29.37 in994.6 mb 0.00 in0.0 mm 0.00 in0.0 mm 0.00 in0.0 mm
08:20 AM 48.9°F9.4°C 40.2°F4.6°C 72% 4.0 mph ESE6.4 kmh ESE 17.0 mph27.4 kmh 29.37 in994.6 mb 0.00 in0.0 mm 0.00 in0.0 mm 0.00 in0.0 mm
08:25 AM 49.1°F9.5°C 40.4°F4.7°C 72% 4.9 mph ESE7.9 kmh ESE 17.0 mph27.4 kmh 29.37 in994.6 mb 0.00 in0.0 mm 0.00 in0.0 mm 0.00 in0.0 mm
08:30 AM 49.3°F9.6°C 40.6°F4.8°C 72% 8.9 mph E14.3 kmh E 13.6 mph21.9 kmh 29.37 in994.6 mb 0.00 in0.0 mm 0.00 in0.0 mm 0.00 in0.0 mm
08:35 AM 49.3°F9.6°C 40.6°F4.8°C 72% 14.5 mph E23.3 kmh E 14.5 mph23.3 kmh 29.37 in994.6 mb 0.00 in0.0 mm 0.00 in0.0 mm 0.00 in0.0 mm
08:40 AM 49.6°F9.8°C 41.0°F5.0°C 72% 3.8 mph E6.1 kmh E 14.5 mph23.3 kmh 29.36 in994.2 mb 0.00 in0.0 mm 0.00 in0.0 mm 0.00 in0.0 mm
08:45 AM 49.6°F9.8°C 41.0°F5.0°C 72% 2.5 mph E4.0 kmh E 15.0 mph24.1 kmh 29.36 in994.2 mb 0.00 in0.0 mm 0.00 in0.0 mm 0.00 in0.0 mm
08:50 AM 49.8°F9.9°C 40.8°F4.9°C 71% 8.1 mph ESE13.0 kmh ESE 15.0 mph24.1 kmh 29.37 in994.6 mb 0.00 in0.0 mm 0.00 in0.0 mm 0.00 in0.0 mm
09:20 AM 50.7°F10.4°C 41.7°F5.4°C 71% 8.9 mph NE14.3 kmh NE 18.8 mph30.3 kmh 29.37 in994.6 mb 0.00 in0.0 mm 0.00 in0.0 mm 0.00 in0.0 mm
09:25 AM 50.9°F10.5°C 41.9°F5.5°C 71% 9.8 mph E15.8 kmh E 18.8 mph30.3 kmh 29.38 in994.9 mb 0.00 in0.0 mm 0.00 in0.0 mm 0.00 in0.0 mm
09:30 AM 51.1°F10.6°C 42.1°F5.6°C 71% 9.6 mph ESE15.4 kmh ESE 16.6 mph26.7 kmh 29.38 in994.9 mb 0.00 in0.0 mm 0.00 in0.0 mm 0.00 in0.0 mm
09:35 AM 51.1°F10.6°C 42.1°F5.6°C 71% 3.8 mph E6.1 kmh E 19.0 mph30.6 kmh 29.39 in995.3 mb 0.00 in0.0 mm 0.00 in0.0 mm 0.00 in0.0 mm
09:40 AM 51.3°F10.7°C 42.2°F5.7°C 71% 11.2 mph E18.0 kmh E 19.0 mph30.6 kmh 29.39 in995.3 mb 0.00 in0.0 mm 0.00 in0.0 mm 0.00 in0.0 mm
09:45 AM 51.3°F10.7°C 41.9°F5.5°C 70% 3.6 mph E5.8 kmh E 16.3 mph26.2 kmh 29.39 in995.3 mb 0.00 in0.0 mm 0.00 in0.0 mm 0.00 in0.0 mm
09:50 AM 51.4°F10.8°C 42.1°F5.6°C 70% 2.9 mph E4.7 kmh E 22.1 mph35.6 kmh 29.39 in995.3 mb 0.00 in0.0 mm 0.00 in0.0 mm 0.00 in0.0 mm
09:55 AM 51.4°F10.8°C 42.4°F5.8°C 71% 8.3 mph E13.4 kmh E 22.1 mph35.6 kmh 29.39 in995.3 mb 0.00 in0.0 mm 0.00 in0.0 mm 0.00 in0.0 mm
10:00 AM 51.6°F10.9°C 42.3°F5.7°C 70% 12.5 mph E20.1 kmh E 18.1 mph29.1 kmh 29.38 in994.9 mb 0.00 in0.0 mm 0.00 in0.0 mm 0.00 in0.0 mm
10:05 AM 51.6°F10.9°C 42.3°F5.7°C 70% 9.8 mph ENE15.8 kmh ENE 18.1 mph29.1 kmh 29.39 in995.3 mb 0.00 in0.0 mm 0.00 in0.0 mm 0.00 in0.0 mm
10:10 AM 52.0°F11.1°C 42.6°F5.9°C 70% 13.0 mph E20.9 kmh E 17.9 mph28.8 kmh 29.39 in995.3 mb 0.00 in0.0 mm 0.00 in0.0 mm 0.00 in0.0 mm
10:15 AM 52.0°F11.1°C 42.6°F5.9°C 70% 5.6 mph E9.0 kmh E 25.7 mph41.4 kmh 29.40 in995.6 mb 0.00 in0.0 mm 0.00 in0.0 mm 0.00 in0.0 mm
10:20 AM 52.0°F11.1°C 42.6°F5.9°C 70% 4.7 mph E7.6 kmh E 25.7 mph41.4 kmh 29.41 in995.9 mb 0.00 in0.0 mm 0.00 in0.0 mm 0.00 in0.0 mm
10:25 AM 52.2°F11.2°C 42.8°F6.0°C 70% 2.2 mph ESE3.5 kmh ESE 13.4 mph21.6 kmh 29.42 in996.3 mb 0.00 in0.0 mm 0.00 in0.0 mm 0.00 in0.0 mm
10:30 AM 52.3°F11.3°C 42.5°F5.8°C 69% 6.5 mph ESE10.5 kmh ESE 13.0 mph20.9 kmh 29.42 in996.3 mb 0.00 in0.0 mm 0.00 in0.0 mm 0.00 in0.0 mm
10:35 AM 52.3°F11.3°C 42.5°F5.8°C 69% 6.0 mph SE9.7 kmh SE 11.4 mph18.3 kmh 29.43 in996.6 mb 0.00 in0.0 mm 0.00 in0.0 mm 0.00 in0.0 mm
10:40 AM 52.5°F11.4°C 42.3°F5.7°C 68% 6.0 mph S9.7 kmh S 17.2 mph27.7 kmh 29.44 in997.0 mb 0.00 in0.0 mm 0.00 in0.0 mm 0.00 in0.0 mm
10:45 AM 52.5°F11.4°C 42.3°F5.7°C 68% 14.1 mph S22.7 kmh S 17.4 mph28.0 kmh 29.45 in997.3 mb 0.00 in0.0 mm 0.00 in0.0 mm 0.00 in0.0 mm
10:50 AM 52.5°F11.4°C 42.3°F5.7°C 68% 3.8 mph S6.1 kmh S 17.4 mph28.0 kmh 29.45 in997.3 mb 0.00 in0.0 mm 0.00 in0.0 mm 0.00 in0.0 mm
10:55 AM 52.5°F11.4°C 42.3°F5.7°C 68% 6.0 mph S9.7 kmh S 17.9 mph28.8 kmh 29.46 in997.6 mb 0.00 in0.0 mm 0.00 in0.0 mm 0.00 in0.0 mm
11:00 AM 52.3°F11.3°C 42.1°F5.6°C 68% 20.4 mph S32.8 kmh S 27.1 mph43.6 kmh 29.46 in997.6 mb 0.00 in0.0 mm 0.00 in0.0 mm 0.00 in0.0 mm
11:05 AM 52.5°F11.4°C 41.9°F5.5°C 67% 17.2 mph S27.7 kmh S 27.1 mph43.6 kmh 29.46 in997.6 mb 0.00 in0.0 mm 0.00 in0.0 mm 0.00 in0.0 mm
11:10 AM 52.5°F11.4°C 42.3°F5.7°C 68% 9.4 mph S15.1 kmh S 17.9 mph28.8 kmh 29.46 in997.6 mb 0.00 in0.0 mm 0.00 in0.0 mm 0.00 in0.0 mm
11:15 AM 52.5°F11.4°C 42.3°F5.7°C 68% 4.7 mph S7.6 kmh S 17.0 mph27.4 kmh 29.46 in997.6 mb 0.00 in0.0 mm 0.00 in0.0 mm 0.00 in0.0 mm
11:20 AM 52.7°F11.5°C 42.4°F5.8°C 68% 4.7 mph S7.6 kmh S 21.9 mph35.2 kmh 29.46 in997.6 mb 0.00 in0.0 mm 0.00 in0.0 mm 0.00 in0.0 mm
11:25 AM 52.9°F11.6°C 42.2°F5.7°C 67% 11.2 mph SE18.0 kmh SE 21.9 mph35.2 kmh 29.46 in997.6 mb 0.00 in0.0 mm 0.00 in0.0 mm 0.00 in0.0 mm
11:30 AM 52.9°F11.6°C 42.2°F5.7°C 67% 4.9 mph NE7.9 kmh NE 19.2 mph30.9 kmh 29.45 in997.3 mb 0.00 in0.0 mm 0.00 in0.0 mm 0.00 in0.0 mm
11:35 AM 53.2°F11.8°C 42.5°F5.8°C 67% 6.5 mph NE10.5 kmh NE 19.2 mph30.9 kmh 29.45 in997.3 mb 0.00 in0.0 mm 0.00 in0.0 mm 0.00 in0.0 mm
11:40 AM 53.1°F11.7°C 42.4°F5.8°C 67% 8.3 mph NE13.4 kmh NE 19.2 mph30.9 kmh 29.44 in997.0 mb 0.00 in0.0 mm 0.00 in0.0 mm 0.00 in0.0 mm
11:45 AM 53.1°F11.7°C 42.4°F5.8°C 67% 5.1 mph ENE8.2 kmh ENE 18.1 mph29.1 kmh 29.45 in997.3 mb 0.00 in0.0 mm 0.00 in0.0 mm 0.00 in0.0 mm
11:50 AM 53.2°F11.8°C 42.5°F5.8°C 67% 5.1 mph ESE8.2 kmh ESE 15.2 mph24.5 kmh 29.45 in997.3 mb 0.00 in0.0 mm 0.00 in0.0 mm 0.00 in0.0 mm
11:55 AM 53.4°F11.9°C 42.3°F5.7°C 66% Calm Calm 15.2 mph24.5 kmh 29.44 in997.0 mb 0.00 in0.0 mm 0.00 in0.0 mm 0.00 in0.0 mm
12:00 PM 53.6°F12.0°C 42.5°F5.8°C 66% 5.1 mph E8.2 kmh E 15.2 mph24.5 kmh 29.45 in997.3 mb 0.00 in0.0 mm 0.00 in0.0 mm 0.00 in0.0 mm
12:05 PM 53.4°F11.9°C 42.3°F5.7°C 66% 5.8 mph E9.3 kmh E 11.9 mph19.2 kmh 29.45 in997.3 mb 0.00 in0.0 mm 0.00 in0.0 mm 0.00 in0.0 mm
12:10 PM 53.2°F11.8°C 42.5°F5.8°C 67% 1.8 mph E2.9 kmh E 14.3 mph23.0 kmh 29.45 in997.3 mb 0.00 in0.0 mm 0.00 in0.0 mm 0.00 in0.0 mm
12:15 PM 53.2°F11.8°C 42.5°F5.8°C 67% 4.0 mph ESE6.4 kmh ESE 14.3 mph23.0 kmh 29.45 in997.3 mb 0.00 in0.0 mm 0.00 in0.0 mm 0.00 in0.0 mm
12:20 PM 53.2°F11.8°C 42.5°F5.8°C 67% 5.6 mph SE9.0 kmh SE 21.3 mph34.3 kmh 29.45 in997.3 mb 0.00 in0.0 mm 0.00 in0.0 mm 0.00 in0.0 mm
12:25 PM 53.2°F11.8°C 42.9°F6.1°C 68% 8.5 mph SSE13.7 kmh SSE 21.3 mph34.3 kmh 29.46 in997.6 mb 0.00 in0.0 mm 0.00 in0.0 mm 0.00 in0.0 mm
12:30 PM 53.4°F11.9°C 42.7°F5.9°C 67% 2.0 mph SE3.2 kmh SE 11.6 mph18.7 kmh 29.46 in997.6 mb 0.00 in0.0 mm 0.00 in0.0 mm 0.00 in0.0 mm
12:35 PM 53.4°F11.9°C 42.7°F5.9°C 67% 2.0 mph SE3.2 kmh SE 15.7 mph25.3 kmh 29.46 in997.6 mb 0.00 in0.0 mm 0.00 in0.0 mm 0.00 in0.0 mm
12:40 PM 53.8°F12.1°C 42.6°F5.9°C 66% 4.5 mph SE7.2 kmh SE 15.7 mph25.3 kmh 29.46 in997.6 mb 0.00 in0.0 mm 0.00 in0.0 mm 0.00 in0.0 mm
12:45 PM 53.8°F12.1°C 42.2°F5.7°C 65% 4.0 mph E6.4 kmh E 14.1 mph22.7 kmh 29.46 in997.6 mb 0.00 in0.0 mm 0.00 in0.0 mm 0.00 in0.0 mm
12:50 PM 54.0°F12.2°C 42.4°F5.8°C 65% 4.7 mph E7.6 kmh E 17.4 mph28.0 kmh 29.46 in997.6 mb 0.00 in0.0 mm 0.00 in0.0 mm 0.00 in0.0 mm
12:55 PM 54.5°F12.5°C 42.9°F6.1°C 65% 6.0 mph NE9.7 kmh NE 17.4 mph28.0 kmh 29.45 in997.3 mb 0.00 in0.0 mm 0.00 in0.0 mm 0.00 in0.0 mm
01:00 PM 55.2°F12.9°C 43.2°F6.2°C 64% Calm Calm 15.2 mph24.5 kmh 29.46 in997.6 mb 0.00 in0.0 mm 0.00 in0.0 mm 0.00 in0.0 mm
01:05 PM 55.2°F12.9°C 42.8°F6.0°C 63% 2.9 mph NE4.7 kmh NE 19.0 mph30.6 kmh 29.45 in997.3 mb 0.00 in0.0 mm 0.00 in0.0 mm 0.00 in0.0 mm
01:10 PM 55.0°F12.8°C 43.0°F6.1°C 64% 8.7 mph NE14.0 kmh NE 19.5 mph31.4 kmh 29.45 in997.3 mb 0.00 in0.0 mm 0.00 in0.0 mm 0.00 in0.0 mm
01:15 PM 55.0°F12.8°C 43.4°F6.3°C 65% 9.6 mph NE15.4 kmh NE 20.1 mph32.3 kmh 29.45 in997.3 mb 0.00 in0.0 mm 0.00 in0.0 mm 0.00 in0.0 mm
01:20 PM 55.2°F12.9°C 43.6°F6.4°C 65% 2.9 mph NE4.7 kmh NE 20.1 mph32.3 kmh 29.45 in997.3 mb 0.00 in0.0 mm 0.00 in0.0 mm 0.00 in0.0 mm
01:25 PM 55.2°F12.9°C 43.2°F6.2°C 64% 10.3 mph NE16.6 kmh NE 14.1 mph22.7 kmh 29.45 in997.3 mb 0.00 in0.0 mm 0.00 in0.0 mm 0.00 in0.0 mm
01:30 PM 55.2°F12.9°C 43.6°F6.4°C 65% 6.5 mph ENE10.5 kmh ENE 14.1 mph22.7 kmh 29.46 in997.6 mb 0.00 in0.0 mm 0.00 in0.0 mm 0.00 in0.0 mm
01:35 PM 54.9°F12.7°C 42.9°F6.1°C 64% 3.8 mph E6.1 kmh E 13.4 mph21.6 kmh 29.46 in997.6 mb 0.00 in0.0 mm 0.00 in0.0 mm 0.00 in0.0 mm
01:40 PM 54.3°F12.4°C 42.0°F5.6°C 63% 2.5 mph ENE4.0 kmh ENE 13.4 mph21.6 kmh 29.46 in997.6 mb 0.00 in0.0 mm 0.00 in0.0 mm 0.00 in0.0 mm
01:45 PM 54.1°F12.3°C 41.8°F5.4°C 63% 2.0 mph E3.2 kmh E 10.5 mph16.9 kmh 29.47 in998.0 mb 0.00 in0.0 mm 0.00 in0.0 mm 0.00 in0.0 mm
01:50 PM 54.0°F12.2°C 41.6°F5.3°C 63% 3.8 mph ESE6.1 kmh ESE 10.5 mph16.9 kmh 29.46 in997.6 mb 0.00 in0.0 mm 0.00 in0.0 mm 0.00 in0.0 mm
01:55 PM 53.8°F12.1°C 41.8°F5.4°C 64% 3.1 mph SE5.0 kmh SE 9.6 mph15.4 kmh 29.47 in998.0 mb 0.00 in0.0 mm 0.00 in0.0 mm 0.00 in0.0 mm
02:00 PM 54.0°F12.2°C 42.0°F5.6°C 64% 3.1 mph SE5.0 kmh SE 7.6 mph12.2 kmh 29.47 in998.0 mb 0.00 in0.0 mm 0.00 in0.0 mm 0.00 in0.0 mm
02:05 PM 54.0°F12.2°C 42.4°F5.8°C 65% 3.6 mph SE5.8 kmh SE 7.8 mph12.6 kmh 29.46 in997.6 mb 0.00 in0.0 mm 0.00 in0.0 mm 0.00 in0.0 mm
02:10 PM 54.1°F12.3°C 42.6°F5.9°C 65% 0.9 mph SE1.4 kmh SE 7.8 mph12.6 kmh 29.46 in997.6 mb 0.00 in0.0 mm 0.00 in0.0 mm 0.00 in0.0 mm
02:15 PM 54.3°F12.4°C 42.8°F6.0°C 65% 8.9 mph SE14.3 kmh SE 15.7 mph25.3 kmh 29.47 in998.0 mb 0.00 in0.0 mm 0.00 in0.0 mm 0.00 in0.0 mm
02:20 PM 54.1°F12.3°C 42.6°F5.9°C 65% 4.9 mph ENE7.9 kmh ENE 15.7 mph25.3 kmh 29.46 in997.6 mb 0.00 in0.0 mm 0.00 in0.0 mm 0.00 in0.0 mm
02:25 PM 54.3°F12.4°C 43.2°F6.2°C 66% 3.4 mph ENE5.5 kmh ENE 12.3 mph19.8 kmh 29.47 in998.0 mb 0.00 in0.0 mm 0.00 in0.0 mm 0.00 in0.0 mm
02:30 PM 54.3°F12.4°C 43.2°F6.2°C 66% 2.5 mph E4.0 kmh E 8.5 mph13.7 kmh 29.47 in998.0 mb 0.00 in0.0 mm 0.00 in0.0 mm 0.00 in0.0 mm
02:35 PM 54.1°F12.3°C 42.6°F5.9°C 65% 1.6 mph E2.6 kmh E 12.5 mph20.1 kmh 29.47 in998.0 mb 0.00 in0.0 mm 0.00 in0.0 mm 0.00 in0.0 mm
02:40 PM 54.1°F12.3°C 42.6°F5.9°C 65% 3.8 mph E6.1 kmh E 12.5 mph20.1 kmh 29.47 in998.0 mb 0.00 in0.0 mm 0.00 in0.0 mm 0.00 in0.0 mm
02:45 PM 53.8°F12.1°C 42.6°F5.9°C 66% 4.9 mph SE7.9 kmh SE 9.2 mph14.8 kmh 29.47 in998.0 mb 0.00 in0.0 mm 0.00 in0.0 mm 0.00 in0.0 mm
02:50 PM 53.8°F12.1°C 42.6°F5.9°C 66% 2.0 mph E3.2 kmh E 6.9 mph11.1 kmh 29.48 in998.3 mb 0.00 in0.0 mm 0.00 in0.0 mm 0.00 in0.0 mm
02:55 PM 53.8°F12.1°C 42.6°F5.9°C 66% 4.0 mph E6.4 kmh E 6.9 mph11.1 kmh 29.48 in998.3 mb 0.00 in0.0 mm 0.00 in0.0 mm 0.00 in0.0 mm
03:00 PM 53.6°F12.0°C 42.5°F5.8°C 66% 5.1 mph E8.2 kmh E 6.3 mph10.1 kmh 29.48 in998.3 mb 0.00 in0.0 mm 0.00 in0.0 mm 0.00 in0.0 mm
03:05 PM 53.4°F11.9°C 41.9°F5.5°C 65% 8.7 mph E14.0 kmh E 8.7 mph14.0 kmh 29.48 in998.3 mb 0.00 in0.0 mm 0.00 in0.0 mm 0.00 in0.0 mm
03:10 PM 53.4°F11.9°C 41.9°F5.5°C 65% 1.3 mph E2.1 kmh E 9.2 mph14.8 kmh 29.48 in998.3 mb 0.00 in0.0 mm 0.00 in0.0 mm 0.00 in0.0 mm
03:15 PM 53.2°F11.8°C 41.3°F5.2°C 64% 2.0 mph SE3.2 kmh SE 9.2 mph14.8 kmh 29.49 in998.6 mb 0.00 in0.0 mm 0.00 in0.0 mm 0.00 in0.0 mm
03:20 PM 53.2°F11.8°C 41.3°F5.2°C 64% 2.2 mph SE3.5 kmh SE 6.9 mph11.1 kmh 29.48 in998.3 mb 0.00 in0.0 mm 0.00 in0.0 mm 0.00 in0.0 mm
03:25 PM 53.2°F11.8°C 41.7°F5.4°C 65% 2.0 mph SE3.2 kmh SE 6.0 mph9.7 kmh 29.49 in998.6 mb 0.00 in0.0 mm 0.00 in0.0 mm 0.00 in0.0 mm
03:30 PM 52.9°F11.6°C 41.0°F5.0°C 64% Calm Calm 6.7 mph10.8 kmh 29.49 in998.6 mb 0.00 in0.0 mm 0.00 in0.0 mm 0.00 in0.0 mm
03:35 PM 52.9°F11.6°C 41.0°F5.0°C 64% Calm Calm 6.7 mph10.8 kmh 29.49 in998.6 mb 0.00 in0.0 mm 0.00 in0.0 mm 0.00 in0.0 mm
03:40 PM 52.9°F11.6°C 41.0°F5.0°C 64% 2.9 mph ESE4.7 kmh ESE 7.6 mph12.2 kmh 29.49 in998.6 mb 0.00 in0.0 mm 0.00 in0.0 mm 0.00 in0.0 mm
03:45 PM 52.9°F11.6°C 41.0°F5.0°C 64% 2.2 mph ESE3.5 kmh ESE 7.6 mph12.2 kmh 29.49 in998.6 mb 0.00 in0.0 mm 0.00 in0.0 mm 0.00 in0.0 mm
03:50 PM 52.7°F11.5°C 40.8°F4.9°C 64% 3.8 mph SSE6.1 kmh SSE 7.2 mph11.6 kmh 29.50 in999.0 mb 0.00 in0.0 mm 0.00 in0.0 mm 0.00 in0.0 mm
03:55 PM 52.5°F11.4°C 41.1°F5.1°C 65% Calm Calm 7.2 mph11.6 kmh 29.50 in999.0 mb 0.00 in0.0 mm 0.00 in0.0 mm 0.00 in0.0 mm
04:00 PM 52.5°F11.4°C 41.1°F5.1°C 65% 1.3 mph S2.1 kmh S 4.0 mph6.4 kmh 29.50 in999.0 mb 0.00 in0.0 mm 0.00 in0.0 mm 0.00 in0.0 mm
04:05 PM 52.3°F11.3°C 40.9°F4.9°C 65% 1.6 mph S2.6 kmh S 6.3 mph10.1 kmh 29.50 in999.0 mb 0.00 in0.0 mm 0.00 in0.0 mm 0.00 in0.0 mm
04:10 PM 52.3°F11.3°C 40.5°F4.7°C 65% 1.1 mph S1.8 kmh S 6.3 mph10.1 kmh 29.50 in999.0 mb 0.00 in0.0 mm 0.00 in0.0 mm 0.00 in0.0 mm
04:15 PM 52.3°F11.3°C 40.5°F4.7°C 64% Calm Calm 5.8 mph9.3 kmh 29.50 in999.0 mb 0.00 in0.0 mm 0.00 in0.0 mm 0.00 in0.0 mm
04:20 PM 52.3°F11.3°C 40.9°F4.9°C 65% Calm Calm 5.4 mph8.7 kmh 29.51 in999.3 mb 0.00 in0.0 mm 0.00 in0.0 mm 0.00 in0.0 mm
04:25 PM 52.2°F11.2°C 40.7°F4.8°C 65% 3.8 mph SSW6.1 kmh SSW 6.7 mph10.8 kmh 29.51 in999.3 mb 0.00 in0.0 mm 0.00 in0.0 mm 0.00 in0.0 mm
04:30 PM 52.2°F11.2°C 41.1°F5.1°C 66% 0.9 mph SSW1.4 kmh SSW 6.7 mph10.8 kmh 29.50 in999.0 mb 0.00 in0.0 mm 0.00 in0.0 mm 0.00 in0.0 mm
04:35 PM 52.0°F11.1°C 41.4°F5.2°C 67% Calm Calm 5.1 mph8.2 kmh 29.51 in999.3 mb 0.00 in0.0 mm 0.00 in0.0 mm 0.00 in0.0 mm
04:40 PM 51.6°F10.9°C 40.6°F4.8°C 66% Calm Calm 5.4 mph8.7 kmh 29.51 in999.3 mb 0.00 in0.0 mm 0.00 in0.0 mm 0.00 in0.0 mm
04:45 PM 51.6°F10.9°C 41.0°F5.0°C 67% 1.8 mph SSW2.9 kmh SSW 7.6 mph12.2 kmh 29.51 in999.3 mb 0.00 in0.0 mm 0.00 in0.0 mm 0.00 in0.0 mm
04:50 PM 51.6°F10.9°C 41.0°F5.0°C 67% 0.9 mph S1.4 kmh S 7.6 mph12.2 kmh 29.51 in999.3 mb 0.00 in0.0 mm 0.00 in0.0 mm 0.00 in0.0 mm
04:55 PM 51.4°F10.8°C 41.3°F5.2°C 68% 3.8 mph S6.1 kmh S 10.5 mph16.9 kmh 29.51 in999.3 mb 0.00 in0.0 mm 0.00 in0.0 mm 0.00 in0.0 mm
05:00 PM 51.4°F10.8°C 41.7°F5.4°C 69% 2.9 mph S4.7 kmh S 10.5 mph16.9 kmh 29.51 in999.3 mb 0.00 in0.0 mm 0.00 in0.0 mm 0.00 in0.0 mm
05:05 PM 51.3°F10.7°C 41.5°F5.3°C 69% 5.6 mph S9.0 kmh S 8.7 mph14.0 kmh 29.51 in999.3 mb 0.00 in0.0 mm 0.00 in0.0 mm 0.00 in0.0 mm
05:10 PM 51.1°F10.6°C 41.3°F5.2°C 69% 2.0 mph SSW3.2 kmh SSW 8.7 mph14.0 kmh 29.51 in999.3 mb 0.00 in0.0 mm 0.00 in0.0 mm 0.00 in0.0 mm
05:15 PM 51.1°F10.6°C 41.3°F5.2°C 69% 6.3 mph SSW10.1 kmh SSW 8.1 mph13.0 kmh 29.52 in999.7 mb 0.00 in0.0 mm 0.00 in0.0 mm 0.00 in0.0 mm
05:20 PM 50.9°F10.5°C 41.1°F5.1°C 69% 3.8 mph SSW6.1 kmh SSW 10.5 mph16.9 kmh 29.51 in999.3 mb 0.00 in0.0 mm 0.00 in0.0 mm 0.00 in0.0 mm
05:25 PM 50.9°F10.5°C 41.1°F5.1°C 69% 5.1 mph SSW8.2 kmh SSW 12.3 mph19.8 kmh 29.51 in999.3 mb 0.00 in0.0 mm 0.00 in0.0 mm 0.00 in0.0 mm
05:30 PM 50.9°F10.5°C 41.1°F5.1°C 69% 5.4 mph S8.7 kmh S 12.3 mph19.8 kmh 29.52 in999.7 mb 0.00 in0.0 mm 0.00 in0.0 mm 0.00 in0.0 mm
05:35 PM 50.7°F10.4°C 41.4°F5.2°C 70% 3.6 mph S5.8 kmh S 11.4 mph18.3 kmh 29.52 in999.7 mb 0.00 in0.0 mm 0.00 in0.0 mm 0.00 in0.0 mm
05:40 PM 50.7°F10.4°C 41.4°F5.2°C 70% Calm Calm 7.4 mph11.9 kmh 29.52 in999.7 mb 0.00 in0.0 mm 0.00 in0.0 mm 0.00 in0.0 mm
05:45 PM 50.7°F10.4°C 41.4°F5.2°C 70% 6.0 mph SSW9.7 kmh SSW 7.6 mph12.2 kmh 29.52 in999.7 mb 0.00 in0.0 mm 0.00 in0.0 mm 0.00 in0.0 mm
05:50 PM 50.7°F10.4°C 41.7°F5.4°C 70% 9.6 mph S15.4 kmh S 15.7 mph25.3 kmh 29.52 in999.7 mb 0.00 in0.0 mm 0.00 in0.0 mm 0.00 in0.0 mm
05:55 PM 50.5°F10.3°C 41.2°F5.1°C 70% 6.9 mph S11.1 kmh S 15.9 mph25.6 kmh 29.52 in999.7 mb 0.00 in0.0 mm 0.00 in0.0 mm 0.00 in0.0 mm
06:00 PM 50.5°F10.3°C 41.5°F5.3°C 71% 4.5 mph SSW7.2 kmh SSW 15.9 mph25.6 kmh 29.53 in1000.0 mb 0.00 in0.0 mm 0.00 in0.0 mm 0.00 in0.0 mm
06:05 PM 50.5°F10.3°C 41.5°F5.3°C 71% 7.6 mph SSW12.2 kmh SSW 13.6 mph21.9 kmh 29.53 in1000.0 mb 0.00 in0.0 mm 0.00 in0.0 mm 0.00 in0.0 mm
06:10 PM 50.7°F10.4°C 41.7°F5.4°C 71% 11.2 mph S18.0 kmh S 13.6 mph21.9 kmh 29.53 in1000.0 mb 0.00 in0.0 mm 0.00 in0.0 mm 0.00 in0.0 mm
06:15 PM 50.5°F10.3°C 41.5°F5.3°C 71% 6.3 mph S10.1 kmh S 13.6 mph21.9 kmh 29.54 in1000.3 mb 0.00 in0.0 mm 0.00 in0.0 mm 0.00 in0.0 mm
06:20 PM 50.5°F10.3°C 41.5°F5.3°C 71% 6.0 mph S9.7 kmh S 12.1 mph19.5 kmh 29.54 in1000.3 mb 0.00 in0.0 mm 0.00 in0.0 mm 0.00 in0.0 mm
06:25 PM 50.5°F10.3°C 41.5°F5.3°C 71% 15.0 mph SSW24.1 kmh SSW 15.0 mph24.1 kmh 29.54 in1000.3 mb 0.00 in0.0 mm 0.00 in0.0 mm 0.00 in0.0 mm
06:30 PM 50.5°F10.3°C 41.5°F5.3°C 71% 10.3 mph SSW16.6 kmh SSW 15.0 mph24.1 kmh 29.54 in1000.3 mb 0.00 in0.0 mm 0.00 in0.0 mm 0.00 in0.0 mm
06:35 PM 50.5°F10.3°C 41.5°F5.3°C 71% 6.3 mph SSW10.1 kmh SSW 13.4 mph21.6 kmh 29.54 in1000.3 mb 0.00 in0.0 mm 0.00 in0.0 mm 0.00 in0.0 mm
06:40 PM 50.4°F10.2°C 41.3°F5.2°C 71% 2.5 mph SSW4.0 kmh SSW 11.9 mph19.2 kmh 29.54 in1000.3 mb 0.00 in0.0 mm 0.00 in0.0 mm 0.00 in0.0 mm
06:45 PM 50.2°F10.1°C 41.2°F5.1°C 71% 2.9 mph SSW4.7 kmh SSW 10.3 mph16.6 kmh 29.54 in1000.3 mb 0.00 in0.0 mm 0.00 in0.0 mm 0.00 in0.0 mm
06:50 PM 50.2°F10.1°C 41.5°F5.3°C 72% 5.6 mph SSW9.0 kmh SSW 10.3 mph16.6 kmh 29.54 in1000.3 mb 0.00 in0.0 mm 0.00 in0.0 mm 0.00 in0.0 mm
06:55 PM 50.2°F10.1°C 41.5°F5.3°C 72% 4.7 mph SSW7.6 kmh SSW 10.3 mph16.6 kmh 29.54 in1000.3 mb 0.00 in0.0 mm 0.00 in0.0 mm 0.00 in0.0 mm
07:00 PM 50.0°F10.0°C 41.7°F5.4°C 73% 6.0 mph SSW9.7 kmh SSW 7.4 mph11.9 kmh 29.54 in1000.3 mb 0.00 in0.0 mm 0.00 in0.0 mm 0.00 in0.0 mm
07:05 PM 50.2°F10.1°C 41.8°F5.4°C 73% 12.1 mph SSW19.5 kmh SSW 12.3 mph19.8 kmh 29.55 in1000.7 mb 0.00 in0.0 mm 0.00 in0.0 mm 0.00 in0.0 mm
07:10 PM 50.2°F10.1°C 41.8°F5.4°C 73% 8.9 mph S14.3 kmh S 15.2 mph24.5 kmh 29.54 in1000.3 mb 0.00 in0.0 mm 0.00 in0.0 mm 0.00 in0.0 mm
07:15 PM 50.2°F10.1°C 42.2°F5.7°C 74% 5.8 mph S9.3 kmh S 15.2 mph24.5 kmh 29.55 in1000.7 mb 0.00 in0.0 mm 0.00 in0.0 mm 0.00 in0.0 mm
07:20 PM 50.2°F10.1°C 42.2°F5.7°C 74% 9.6 mph S15.4 kmh S 10.1 mph16.3 kmh 29.55 in1000.7 mb 0.00 in0.0 mm 0.00 in0.0 mm 0.00 in0.0 mm
07:25 PM 50.2°F10.1°C 42.2°F5.7°C 74% 5.8 mph SSW9.3 kmh SSW 10.5 mph16.9 kmh 29.54 in1000.3 mb 0.00 in0.0 mm 0.00 in0.0 mm 0.00 in0.0 mm
07:30 PM 50.2°F10.1°C 42.2°F5.7°C 74% 3.8 mph SSW6.1 kmh SSW 10.5 mph16.9 kmh 29.55 in1000.7 mb 0.00 in0.0 mm 0.00 in0.0 mm 0.00 in0.0 mm
07:35 PM 50.2°F10.1°C 42.2°F5.7°C 74% 8.5 mph S13.7 kmh S 8.5 mph13.7 kmh 29.55 in1000.7 mb 0.00 in0.0 mm 0.00 in0.0 mm 0.00 in0.0 mm
07:40 PM 50.2°F10.1°C 42.2°F5.7°C 74% 6.7 mph SSW10.8 kmh SSW 9.8 mph15.8 kmh 29.55 in1000.7 mb 0.00 in0.0 mm 0.00 in0.0 mm 0.00 in0.0 mm
07:45 PM 50.2°F10.1°C 42.2°F5.7°C 74% 4.3 mph SSW6.9 kmh SSW 10.3 mph16.6 kmh 29.55 in1000.7 mb 0.00 in0.0 mm 0.00 in0.0 mm 0.00 in0.0 mm
07:50 PM 50.2°F10.1°C 42.2°F5.7°C 74% 7.4 mph SSW11.9 kmh SSW 10.3 mph16.6 kmh 29.55 in1000.7 mb 0.00 in0.0 mm 0.00 in0.0 mm 0.00 in0.0 mm
07:55 PM 50.2°F10.1°C 42.2°F5.7°C 74% 2.2 mph SSW3.5 kmh SSW 10.1 mph16.3 kmh 29.55 in1000.7 mb 0.00 in0.0 mm 0.00 in0.0 mm 0.00 in0.0 mm
08:00 PM 50.0°F10.0°C 42.0°F5.6°C 74% 2.9 mph SSW4.7 kmh SSW 9.8 mph15.8 kmh 29.55 in1000.7 mb 0.00 in0.0 mm 0.00 in0.0 mm 0.00 in0.0 mm
08:05 PM 49.8°F9.9°C 42.2°F5.7°C 75% 5.8 mph SSW9.3 kmh SSW 8.3 mph13.4 kmh 29.55 in1000.7 mb 0.00 in0.0 mm 0.00 in0.0 mm 0.00 in0.0 mm
08:10 PM 49.8°F9.9°C 42.2°F5.7°C 75% 5.8 mph SSW9.3 kmh SSW 8.3 mph13.4 kmh 29.55 in1000.7 mb 0.00 in0.0 mm 0.00 in0.0 mm 0.00 in0.0 mm
08:15 PM 49.8°F9.9°C 42.2°F5.7°C 75% 3.6 mph SSW5.8 kmh SSW 8.1 mph13.0 kmh 29.55 in1000.7 mb 0.00 in0.0 mm 0.00 in0.0 mm 0.00 in0.0 mm
08:20 PM 49.8°F9.9°C 42.2°F5.7°C 75% 4.5 mph SSW7.2 kmh SSW 7.2 mph11.6 kmh 29.55 in1000.7 mb 0.00 in0.0 mm 0.00 in0.0 mm 0.00 in0.0 mm
08:25 PM 49.6°F9.8°C 42.0°F5.6°C 75% 3.6 mph SSW5.8 kmh SSW 7.2 mph11.6 kmh 29.55 in1000.7 mb 0.00 in0.0 mm 0.00 in0.0 mm 0.00 in0.0 mm
08:30 PM 49.6°F9.8°C 42.0°F5.6°C 75% 4.3 mph SSW6.9 kmh SSW 6.7 mph10.8 kmh 29.55 in1000.7 mb 0.00 in0.0 mm 0.00 in0.0 mm 0.00 in0.0 mm
08:35 PM 49.6°F9.8°C 42.0°F5.6°C 75% 5.4 mph SSW8.7 kmh SSW 6.7 mph10.8 kmh 29.55 in1000.7 mb 0.00 in0.0 mm 0.00 in0.0 mm 0.00 in0.0 mm
08:40 PM 49.6°F9.8°C 42.3°F5.7°C 76% 4.9 mph SSW7.9 kmh SSW 6.0 mph9.7 kmh 29.55 in1000.7 mb 0.00 in0.0 mm 0.00 in0.0 mm 0.00 in0.0 mm
08:45 PM 49.6°F9.8°C 42.3°F5.7°C 76% 4.9 mph SSW7.9 kmh SSW 6.0 mph9.7 kmh 29.55 in1000.7 mb 0.00 in0.0 mm 0.00 in0.0 mm 0.00 in0.0 mm
08:50 PM 49.6°F9.8°C 42.0°F5.6°C 75% Calm Calm 6.0 mph9.7 kmh 29.55 in1000.7 mb 0.00 in0.0 mm 0.00 in0.0 mm 0.00 in0.0 mm
08:55 PM 49.6°F9.8°C 42.0°F5.6°C 75% Calm Calm 5.4 mph8.7 kmh 29.55 in1000.7 mb 0.00 in0.0 mm 0.00 in0.0 mm 0.00 in0.0 mm
09:00 PM 49.6°F9.8°C 42.0°F5.6°C 75% Calm Calm 2.9 mph4.7 kmh 29.56 in1001.0 mb 0.00 in0.0 mm 0.00 in0.0 mm 0.00 in0.0 mm
09:05 PM 49.6°F9.8°C 42.0°F5.6°C 75% Calm Calm 2.9 mph4.7 kmh 29.56 in1001.0 mb 0.00 in0.0 mm 0.00 in0.0 mm 0.00 in0.0 mm
09:10 PM 49.6°F9.8°C 42.3°F5.7°C 76% Calm Calm 1.3 mph2.1 kmh 29.56 in1001.0 mb 0.00 in0.0 mm 0.00 in0.0 mm 0.00 in0.0 mm
09:15 PM 49.6°F9.8°C 42.3°F5.7°C 76% Calm Calm 1.6 mph2.6 kmh 29.56 in1001.0 mb 0.00 in0.0 mm 0.00 in0.0 mm 0.00 in0.0 mm
09:20 PM 49.3°F9.6°C 42.3°F5.7°C 77% Calm Calm 1.6 mph2.6 kmh 29.56 in1001.0 mb 0.00 in0.0 mm 0.00 in0.0 mm 0.00 in0.0 mm
09:25 PM 49.3°F9.6°C 42.3°F5.7°C 77% 1.3 mph SSW2.1 kmh SSW 2.5 mph4.0 kmh 29.57 in1001.4 mb 0.00 in0.0 mm 0.00 in0.0 mm 0.00 in0.0 mm
09:30 PM 48.9°F9.4°C 42.3°F5.7°C 78% Calm Calm 2.5 mph4.0 kmh 29.57 in1001.4 mb 0.00 in0.0 mm 0.00 in0.0 mm 0.00 in0.0 mm
09:35 PM 48.9°F9.4°C 42.3°F5.7°C 78% 1.6 mph SSW2.6 kmh SSW 2.0 mph3.2 kmh 29.57 in1001.4 mb 0.00 in0.0 mm 0.00 in0.0 mm 0.00 in0.0 mm
09:40 PM 48.7°F9.3°C 42.1°F5.6°C 78% 0.9 mph SSW1.4 kmh SSW 1.8 mph2.9 kmh 29.56 in1001.0 mb 0.00 in0.0 mm 0.00 in0.0 mm 0.00 in0.0 mm
09:45 PM 48.7°F9.3°C 42.5°F5.8°C 79% Calm Calm 1.6 mph2.6 kmh 29.56 in1001.0 mb 0.00 in0.0 mm 0.00 in0.0 mm 0.00 in0.0 mm
09:50 PM 48.7°F9.3°C 42.5°F5.8°C 79% Calm Calm 0.9 mph1.4 kmh 29.56 in1001.0 mb 0.00 in0.0 mm 0.00 in0.0 mm 0.00 in0.0 mm
09:55 PM 48.7°F9.3°C 42.5°F5.8°C 79% Calm Calm 0.9 mph1.4 kmh 29.57 in1001.4 mb 0.00 in0.0 mm 0.00 in0.0 mm 0.00 in0.0 mm
10:00 PM 48.7°F9.3°C 42.5°F5.8°C 79% 2.0 mph SSW3.2 kmh SSW 2.0 mph3.2 kmh 29.57 in1001.4 mb 0.00 in0.0 mm 0.00 in0.0 mm 0.00 in0.0 mm
10:05 PM 48.9°F9.4°C 42.6°F5.9°C 79% 8.3 mph SSW13.4 kmh SSW 8.5 mph13.7 kmh 29.56 in1001.0 mb 0.00 in0.0 mm 0.00 in0.0 mm 0.00 in0.0 mm
10:10 PM 49.3°F9.6°C 43.0°F6.1°C 79% Calm Calm 8.5 mph13.7 kmh 29.56 in1001.0 mb 0.00 in0.0 mm 0.00 in0.0 mm 0.00 in0.0 mm
10:15 PM 49.6°F9.8°C 43.0°F6.1°C 78% 0.9 mph SSW1.4 kmh SSW 8.3 mph13.4 kmh 29.56 in1001.0 mb 0.00 in0.0 mm 0.00 in0.0 mm 0.00 in0.0 mm
10:20 PM 49.8°F9.9°C 43.2°F6.2°C 78% Calm Calm 6.3 mph10.1 kmh 29.56 in1001.0 mb 0.00 in0.0 mm 0.00 in0.0 mm 0.00 in0.0 mm
10:25 PM 49.8°F9.9°C 43.2°F6.2°C 78% Calm Calm 4.7 mph7.6 kmh 29.56 in1001.0 mb 0.00 in0.0 mm 0.00 in0.0 mm 0.00 in0.0 mm
10:30 PM 49.8°F9.9°C 43.2°F6.2°C 78% 2.5 mph SSW4.0 kmh SSW 5.1 mph8.2 kmh 29.56 in1001.0 mb 0.00 in0.0 mm 0.00 in0.0 mm 0.00 in0.0 mm
10:35 PM 49.8°F9.9°C 43.2°F6.2°C 78% 2.0 mph S3.2 kmh S 5.1 mph8.2 kmh 29.56 in1001.0 mb 0.00 in0.0 mm 0.00 in0.0 mm 0.00 in0.0 mm
10:40 PM 49.8°F9.9°C 43.2°F6.2°C 78% 3.4 mph NE5.5 kmh NE 3.4 mph5.5 kmh 29.57 in1001.4 mb 0.00 in0.0 mm 0.00 in0.0 mm 0.00 in0.0 mm
10:45 PM 49.6°F9.8°C 43.7°F6.5°C 80% 4.5 mph NE7.2 kmh NE 6.9 mph11.1 kmh 29.57 in1001.4 mb 0.00 in0.0 mm 0.00 in0.0 mm 0.00 in0.0 mm
10:50 PM 49.3°F9.6°C 43.3°F6.3°C 80% 4.0 mph NE6.4 kmh NE 7.6 mph12.2 kmh 29.57 in1001.4 mb 0.00 in0.0 mm 0.00 in0.0 mm 0.00 in0.0 mm
10:55 PM 49.3°F9.6°C 43.3°F6.3°C 80% 2.5 mph NE4.0 kmh NE 7.6 mph12.2 kmh 29.57 in1001.4 mb 0.00 in0.0 mm 0.00 in0.0 mm 0.00 in0.0 mm
11:00 PM 49.3°F9.6°C 43.3°F6.3°C 80% 4.5 mph ENE7.2 kmh ENE 4.5 mph7.2 kmh 29.57 in1001.4 mb 0.00 in0.0 mm 0.00 in0.0 mm 0.00 in0.0 mm
11:05 PM 49.1°F9.5°C 43.5°F6.4°C 81% 2.9 mph NE4.7 kmh NE 6.9 mph11.1 kmh 29.57 in1001.4 mb 0.00 in0.0 mm 0.00 in0.0 mm 0.00 in0.0 mm
11:10 PM 48.9°F9.4°C 43.3°F6.3°C 81% 2.2 mph NE3.5 kmh NE 6.9 mph11.1 kmh 29.57 in1001.4 mb 0.00 in0.0 mm 0.00 in0.0 mm 0.00 in0.0 mm
11:15 PM 48.9°F9.4°C 43.3°F6.3°C 81% 2.2 mph ENE3.5 kmh ENE 6.9 mph11.1 kmh 29.57 in1001.4 mb 0.00 in0.0 mm 0.00 in0.0 mm 0.00 in0.0 mm
11:20 PM 48.7°F9.3°C 43.1°F6.2°C 81% 3.1 mph E5.0 kmh E 5.1 mph8.2 kmh 29.57 in1001.4 mb 0.00 in0.0 mm 0.00 in0.0 mm 0.00 in0.0 mm
11:25 PM 48.7°F9.3°C 43.8°F6.6°C 83% 2.9 mph NE4.7 kmh NE 7.6 mph12.2 kmh 29.57 in1001.4 mb 0.00 in0.0 mm 0.00 in0.0 mm 0.00 in0.0 mm
11:30 PM 48.7°F9.3°C 43.4°F6.3°C 82% 2.0 mph NE3.2 kmh NE 7.6 mph12.2 kmh 29.57 in1001.4 mb 0.00 in0.0 mm 0.00 in0.0 mm 0.00 in0.0 mm
11:35 PM 48.6°F9.2°C 43.3°F6.3°C 82% 3.4 mph NE5.5 kmh NE 6.3 mph10.1 kmh 29.57 in1001.4 mb 0.00 in0.0 mm 0.00 in0.0 mm 0.00 in0.0 mm
11:40 PM 48.6°F9.2°C 43.6°F6.4°C 83% 2.7 mph ENE4.3 kmh ENE 6.3 mph10.1 kmh 29.57 in1001.4 mb 0.00 in0.0 mm 0.00 in0.0 mm 0.00 in0.0 mm
11:45 PM 48.6°F9.2°C 43.6°F6.4°C 83% 2.9 mph NE4.7 kmh NE 5.4 mph8.7 kmh 29.57 in1001.4 mb 0.00 in0.0 mm 0.00 in0.0 mm 0.00 in0.0 mm
11:50 PM 48.4°F9.1°C 43.4°F6.3°C 83% 1.6 mph NE2.6 kmh NE 5.4 mph8.7 kmh 29.56 in1001.0 mb 0.00 in0.0 mm 0.00 in0.0 mm 0.00 in0.0 mm
11:55 PM 48.4°F9.1°C 43.4°F6.3°C 83% 2.5 mph NE4.0 kmh NE 4.3 mph6.9 kmh 29.56 in1001.0 mb 0.00 in0.0 mm 0.00 in0.0 mm 0.00 in0.0 mm